createdAt,value
2022-11-21T00:00:48.364Z,4.30
2022-11-21T00:03:14.735Z,4.10
2022-11-21T00:05:43.410Z,4.15
2022-11-21T00:08:11.249Z,3.92
2022-11-21T00:10:38.376Z,4.30
2022-11-21T00:13:05.265Z,3.05
2022-11-21T00:15:32.281Z,3.05
2022-11-21T00:17:58.143Z,2.97
2022-11-21T00:20:23.900Z,2.45
2022-11-21T00:22:49.758Z,2.63
2022-11-21T00:25:15.961Z,2.70
2022-11-21T00:27:42.046Z,3.55
2022-11-21T00:30:09.796Z,2.60
2022-11-21T00:32:35.640Z,3.28
2022-11-21T00:35:01.490Z,2.50
2022-11-21T00:37:27.396Z,2.40
2022-11-21T00:39:53.206Z,2.65
2022-11-21T00:42:18.949Z,2.55
2022-11-21T00:44:44.706Z,2.85
2022-11-21T00:47:10.471Z,2.42
2022-11-21T00:49:36.262Z,2.88
2022-11-21T00:52:02.162Z,3.08
2022-11-21T00:54:28.207Z,3.13
2022-11-21T00:56:54.203Z,2.90
2022-11-21T00:59:20.001Z,3.13
2022-11-21T01:01:45.807Z,3.10
2022-11-21T01:04:11.670Z,3.13
2022-11-21T01:06:37.962Z,3.28
2022-11-21T01:09:04.005Z,2.70
2022-11-21T01:11:30.026Z,2.35
2022-11-21T01:13:55.960Z,2.10
2022-11-21T01:16:24.146Z,2.33
2022-11-21T01:18:50.302Z,2.67
2022-11-21T01:21:16.125Z,2.80
2022-11-21T01:23:42.776Z,2.28
2022-11-21T01:26:15.466Z,2.60
2022-11-21T01:28:41.382Z,2.67
2022-11-21T01:31:33.355Z,2.60
2022-11-21T01:34:00.205Z,3.28
2022-11-21T01:36:31.757Z,3.38
2022-11-21T01:39:00.708Z,3.90
2022-11-21T01:41:35.138Z,3.95
2022-11-21T01:44:02.808Z,5.70
2022-11-21T01:46:28.767Z,5.88
2022-11-21T01:49:28.885Z,6.40
2022-11-21T01:52:20.846Z,7.28
2022-11-21T01:54:59.904Z,7.70
2022-11-21T01:57:31.137Z,8.88
2022-11-21T02:00:22.400Z,7.07
2022-11-21T02:02:52.655Z,9.02
2022-11-21T02:05:22.786Z,8.77
2022-11-21T02:07:51.416Z,9.98
2022-11-21T02:10:17.932Z,9.13
2022-11-21T02:12:55.381Z,9.70
2022-11-21T02:15:23.765Z,10.32
2022-11-21T02:17:49.712Z,10.75
2022-11-21T02:20:18.205Z,11.27
2022-11-21T02:23:11.699Z,11.60
2022-11-21T02:25:40.744Z,12.43
2022-11-21T02:28:10.761Z,12.55
2022-11-21T02:30:39.085Z,12.25
2022-11-21T02:33:05.643Z,13.45
2022-11-21T02:35:33.088Z,13.05
2022-11-21T02:38:02.981Z,12.35
2022-11-21T02:40:33.670Z,13.98
2022-11-21T02:43:21.278Z,12.95
2022-11-21T02:45:47.129Z,13.07
2022-11-21T02:48:13.330Z,13.80
2022-11-21T02:50:43.690Z,13.43
2022-11-21T02:53:13.099Z,12.95
2022-11-21T02:55:39.260Z,14.00
2022-11-21T02:58:05.735Z,14.23
2022-11-21T03:00:33.281Z,13.63
2022-11-21T03:02:59.612Z,12.68
2022-11-21T03:05:26.557Z,13.88
2022-11-21T03:07:53.137Z,12.90
2022-11-21T03:10:20.176Z,13.30
2022-11-21T03:12:46.702Z,14.85
2022-11-21T03:15:15.530Z,12.73
2022-11-21T03:17:42.643Z,15.38
2022-11-21T03:20:10.331Z,15.98
2022-11-21T03:22:36.256Z,13.48
2022-11-21T03:25:02.109Z,13.25
2022-11-21T03:27:27.866Z,12.77
2022-11-21T03:29:53.658Z,12.90
2022-11-21T03:32:19.474Z,11.50
2022-11-21T03:34:45.234Z,11.20
2022-11-21T03:37:11.080Z,12.20
2022-11-21T03:39:36.791Z,12.07
2022-11-21T03:42:02.576Z,11.40
2022-11-21T03:44:29.360Z,10.93
2022-11-21T03:46:55.295Z,13.75
2022-11-21T03:49:21.055Z,10.70
2022-11-21T03:51:46.810Z,9.38
2022-11-21T03:54:12.599Z,9.75
2022-11-21T03:56:41.218Z,8.82
2022-11-21T03:59:07.019Z,9.23
2022-11-21T04:01:36.549Z,9.32
2022-11-21T04:04:03.101Z,8.85
2022-11-21T04:06:30.626Z,6.28
2022-11-21T04:08:56.850Z,6.43
2022-11-21T04:11:23.905Z,5.80
2022-11-21T04:13:51.115Z,6.00
2022-11-21T04:16:16.959Z,6.05
2022-11-21T04:18:42.756Z,5.78
2022-11-21T04:21:08.930Z,6.03
2022-11-21T04:23:34.755Z,5.65
2022-11-21T04:26:00.894Z,6.05
2022-11-21T04:28:26.750Z,7.38
2022-11-21T04:30:54.984Z,6.20
2022-11-21T04:33:21.288Z,6.07
2022-11-21T04:35:47.231Z,6.55
2022-11-21T04:38:14.161Z,6.18
2022-11-21T04:40:40.149Z,7.22
2022-11-21T04:43:06.012Z,6.72
2022-11-21T04:45:31.901Z,6.95
2022-11-21T04:47:57.724Z,7.15
2022-11-21T04:50:23.815Z,8.68
2022-11-21T04:52:51.825Z,6.85
2022-11-21T04:55:17.992Z,6.95
2022-11-21T04:57:44.052Z,6.65
2022-11-21T05:00:10.371Z,7.47
2022-11-21T05:02:36.115Z,7.97
2022-11-21T05:05:01.915Z,8.13
2022-11-21T05:07:27.682Z,7.55
2022-11-21T05:09:53.540Z,12.25
2022-11-21T05:12:37.640Z,12.73
2022-11-21T05:15:03.699Z,10.05
2022-11-21T05:17:29.764Z,8.70
2022-11-21T05:19:55.654Z,9.27
2022-11-21T05:22:21.488Z,8.85
2022-11-21T05:24:47.305Z,10.52
2022-11-21T05:27:13.065Z,10.25
2022-11-21T05:29:38.843Z,10.82
2022-11-21T05:32:04.861Z,11.07
2022-11-21T05:34:30.802Z,11.48
2022-11-21T05:36:59.490Z,12.43
2022-11-21T05:39:26.167Z,12.23
2022-11-21T05:41:52.373Z,10.95
2022-11-21T05:44:18.251Z,12.40
2022-11-21T05:46:44.648Z,12.40
2022-11-21T05:49:10.811Z,11.85
2022-11-21T05:51:36.824Z,13.10
2022-11-21T05:54:03.100Z,12.63
2022-11-21T05:56:29.308Z,13.15
2022-11-21T05:58:56.334Z,16.92
2022-11-21T06:01:41.860Z,12.65
2022-11-21T06:04:08.978Z,11.00
2022-11-21T06:06:35.194Z,11.35
2022-11-21T06:09:01.960Z,12.82
2022-11-21T06:11:27.795Z,11.13
2022-11-21T06:13:54.101Z,10.13
2022-11-21T06:16:20.257Z,12.57
2022-11-21T06:18:55.220Z,11.57
2022-11-21T06:21:27.429Z,13.38
2022-11-21T06:23:55.206Z,12.95
2022-11-21T06:26:23.745Z,15.98
2022-11-21T06:28:49.947Z,15.10
2022-11-21T06:31:21.394Z,13.43
2022-11-21T06:33:50.869Z,12.25
2022-11-21T06:36:17.345Z,12.45
2022-11-21T06:38:44.318Z,12.57
2022-11-21T06:41:15.283Z,12.40
2022-11-21T06:43:41.769Z,13.32
2022-11-21T06:46:07.891Z,12.80
2022-11-21T06:48:35.411Z,10.75
2022-11-21T06:51:11.813Z,12.70
2022-11-21T06:53:37.741Z,10.32
2022-11-21T06:56:03.943Z,11.40
2022-11-21T06:58:30.814Z,11.98
2022-11-21T07:00:56.833Z,12.82
2022-11-21T07:03:22.796Z,14.35
2022-11-21T07:05:50.044Z,15.43
2022-11-21T07:08:15.792Z,15.95
2022-11-21T07:10:57.359Z,17.15
2022-11-21T07:13:27.780Z,16.90
2022-11-21T07:15:55.520Z,18.17
2022-11-21T07:18:22.171Z,18.85
2022-11-21T07:20:48.519Z,18.45
2022-11-21T07:23:14.714Z,19.33
2022-11-21T07:25:41.211Z,17.73
2022-11-21T07:28:08.190Z,18.20
2022-11-21T07:30:35.389Z,20.60
2022-11-21T07:33:04.749Z,18.85
2022-11-21T07:35:31.733Z,19.92
2022-11-21T07:37:57.622Z,26.10
2022-11-21T07:40:23.464Z,22.25
2022-11-21T07:42:49.235Z,22.70
2022-11-21T07:45:15.753Z,21.00
2022-11-21T07:47:41.895Z,20.83
2022-11-21T07:50:09.434Z,21.48
2022-11-21T07:52:35.416Z,22.70
2022-11-21T07:55:01.954Z,23.30
2022-11-21T07:57:28.378Z,22.13
2022-11-21T07:59:54.524Z,22.48
2022-11-21T08:02:22.493Z,23.98
2022-11-21T08:04:48.630Z,26.20
2022-11-21T08:07:15.682Z,23.75
2022-11-21T08:09:41.498Z,23.10
2022-11-21T08:12:07.750Z,22.88
2022-11-21T08:14:33.851Z,21.33
2022-11-21T08:16:59.815Z,22.42
2022-11-21T08:19:26.051Z,22.88
2022-11-21T08:21:52.190Z,20.83
2022-11-21T08:24:18.039Z,21.40
2022-11-21T08:26:44.645Z,22.35
2022-11-21T08:29:11.348Z,21.25
2022-11-21T08:31:38.558Z,24.42
2022-11-21T08:34:04.504Z,22.35
2022-11-21T08:36:30.380Z,20.05
2022-11-21T08:38:56.264Z,20.02
2022-11-21T08:41:40.391Z,22.13
2022-11-21T08:44:11.150Z,21.02
2022-11-21T08:46:39.522Z,21.17
2022-11-21T08:49:06.486Z,18.60
2022-11-21T08:51:32.836Z,23.80
2022-11-21T08:53:58.846Z,20.80
2022-11-21T08:56:25.501Z,18.58
2022-11-21T08:58:51.333Z,20.00
2022-11-21T09:01:17.463Z,19.17
2022-11-21T09:03:43.246Z,18.92
2022-11-21T09:06:09.052Z,18.65
2022-11-21T09:08:35.016Z,17.00
2022-11-21T09:11:05.500Z,17.23
2022-11-21T09:13:31.496Z,15.88
2022-11-21T09:16:20.447Z,17.10
2022-11-21T09:18:47.188Z,15.15
2022-11-21T09:21:16.874Z,16.33
2022-11-21T09:23:43.118Z,16.80
2022-11-21T09:26:09.131Z,16.30
2022-11-21T09:28:35.280Z,16.33
2022-11-21T09:31:04.937Z,16.35
2022-11-21T09:33:31.410Z,15.82
2022-11-21T09:36:00.744Z,16.77
2022-11-21T09:38:26.971Z,15.88
2022-11-21T09:41:28.818Z,18.05
2022-11-21T09:44:14.404Z,16.40
2022-11-21T09:46:46.580Z,16.83
2022-11-21T09:49:13.876Z,19.10
2022-11-21T09:51:43.394Z,19.30
2022-11-21T09:54:09.108Z,18.65
2022-11-21T09:56:38.840Z,19.55
2022-11-21T09:59:33.238Z,19.48
2022-11-21T10:01:59.080Z,20.98
2022-11-21T10:04:27.202Z,21.63
2022-11-21T10:06:56.086Z,25.77
2022-11-21T10:09:48.129Z,22.95
2022-11-21T10:12:39.056Z,22.10
2022-11-21T10:15:37.395Z,19.08
2022-11-21T10:18:24.699Z,17.15
2022-11-21T10:21:23.992Z,16.23
2022-11-21T10:24:02.218Z,19.98
2022-11-21T10:26:40.975Z,15.90
2022-11-21T10:29:18.568Z,14.63
2022-11-21T10:31:46.268Z,14.30
2022-11-21T10:34:17.239Z,15.20
2022-11-21T10:36:48.914Z,14.38
2022-11-21T10:39:38.602Z,15.02
2022-11-21T10:42:27.644Z,13.80
2022-11-21T10:45:12.016Z,12.18
2022-11-21T10:47:37.878Z,13.02
2022-11-21T10:50:09.334Z,11.75
2022-11-21T10:52:45.371Z,11.70
2022-11-21T10:55:13.259Z,10.10
2022-11-21T10:57:50.129Z,9.27
2022-11-21T11:00:19.724Z,8.63
2022-11-21T11:02:54.641Z,9.43
2022-11-21T11:05:22.371Z,9.77
2022-11-21T11:08:09.251Z,10.35
2022-11-21T11:10:43.991Z,11.15
2022-11-21T11:13:46.395Z,11.03
2022-11-21T11:16:14.563Z,12.13
2022-11-21T11:18:48.400Z,11.82
2022-11-21T11:21:46.220Z,9.25
2022-11-21T11:24:11.939Z,10.57
2022-11-21T11:26:48.613Z,8.82
2022-11-21T11:29:26.269Z,7.68
2022-11-21T11:31:58.424Z,6.10
2022-11-21T11:34:39.201Z,6.45
2022-11-21T11:37:41.060Z,6.63
2022-11-21T11:40:29.173Z,7.47
2022-11-21T11:43:47.003Z,6.53
2022-11-21T11:46:51.404Z,8.23
2022-11-21T11:49:55.122Z,7.93
2022-11-21T11:52:24.319Z,9.05
2022-11-21T11:55:01.295Z,8.48
2022-11-21T11:57:30.851Z,8.65
2022-11-21T12:00:40.143Z,10.00
2022-11-21T12:03:05.863Z,9.23
2022-11-21T12:05:31.900Z,9.52
2022-11-21T12:08:40.764Z,9.27
2022-11-21T12:11:31.310Z,8.10
2022-11-21T12:14:06.556Z,8.50
2022-11-21T12:16:34.970Z,7.95
2022-11-21T12:19:13.700Z,8.02
2022-11-21T12:21:39.463Z,7.35
2022-11-21T12:24:10.525Z,8.63
2022-11-21T12:27:13.373Z,7.93
2022-11-21T12:30:19.548Z,7.85
2022-11-21T12:33:06.598Z,7.63
2022-11-21T12:36:18.330Z,9.00
2022-11-21T12:38:53.378Z,6.57
2022-11-21T12:41:53.009Z,8.05
2022-11-21T12:44:21.760Z,7.78
2022-11-21T12:47:07.338Z,7.85
2022-11-21T12:50:22.998Z,7.65
2022-11-21T12:53:21.457Z,8.48
2022-11-21T12:55:50.392Z,7.78
2022-11-21T12:58:36.429Z,7.78
2022-11-21T13:03:51.081Z,7.80
2022-11-21T13:06:27.305Z,7.90
2022-11-21T13:08:56.141Z,8.20
2022-11-21T13:11:54.136Z,7.72
2022-11-21T13:14:50.995Z,7.72
2022-11-21T13:17:25.581Z,9.68
2022-11-21T13:19:56.898Z,8.60
2022-11-21T13:22:34.864Z,8.52
2022-11-21T13:25:03.301Z,7.50
2022-11-21T13:27:38.706Z,7.00
2022-11-21T13:30:08.099Z,5.70
2022-11-21T13:32:43.395Z,6.60
2022-11-21T13:35:18.464Z,6.03
2022-11-21T13:38:07.869Z,6.20
2022-11-21T13:40:37.923Z,5.15
2022-11-21T13:43:32.063Z,4.10
2022-11-21T13:45:58.152Z,4.68
2022-11-21T13:48:23.873Z,5.13
2022-11-21T13:51:08.578Z,5.50
2022-11-21T13:53:37.138Z,4.70
2022-11-21T13:56:34.191Z,4.53
2022-11-21T13:59:29.560Z,3.92
2022-11-21T14:02:22.289Z,3.63
2022-11-21T14:05:15.479Z,3.60
2022-11-21T14:07:43.587Z,3.22
2022-11-21T14:10:18.681Z,3.55
2022-11-21T14:12:48.986Z,3.80
2022-11-21T14:15:52.257Z,5.03
2022-11-21T14:18:23.573Z,3.80
2022-11-21T14:20:53.206Z,3.78
2022-11-21T14:23:24.879Z,3.13
2022-11-21T14:26:14.063Z,5.38
2022-11-21T14:28:39.924Z,3.85
2022-11-21T14:31:07.903Z,3.25
2022-11-21T14:33:35.212Z,3.63
2022-11-21T14:36:21.659Z,3.75
2022-11-21T14:39:07.590Z,2.90
2022-11-21T14:41:38.574Z,3.00
2022-11-21T14:44:14.447Z,2.85
2022-11-21T14:46:41.799Z,3.15
2022-11-21T14:49:16.564Z,2.92
2022-11-21T14:52:08.079Z,2.83
2022-11-21T14:57:52.183Z,3.38
2022-11-21T15:00:58.700Z,2.40
2022-11-21T15:03:19.293Z,2.92
2022-11-21T15:06:01.761Z,2.60
2022-11-21T15:11:16.808Z,2.70
2022-11-21T15:14:12.363Z,3.08
2022-11-21T15:16:32.968Z,3.03
2022-11-21T15:18:59.112Z,2.92
2022-11-21T15:21:24.955Z,2.70
2022-11-21T15:23:54.740Z,3.53
2022-11-21T15:26:34.880Z,3.05
2022-11-21T15:29:01.228Z,3.45
2022-11-21T15:31:27.685Z,4.85
2022-11-21T15:34:19.212Z,2.78
2022-11-21T15:36:42.145Z,2.75
2022-11-21T15:39:21.648Z,2.83
2022-11-21T15:41:47.739Z,3.05
2022-11-21T15:44:20.551Z,3.40
2022-11-21T15:46:51.220Z,2.25
2022-11-21T15:49:33.547Z,2.20
2022-11-21T15:52:07.018Z,2.40
2022-11-21T15:54:34.701Z,2.40
2022-11-21T15:57:00.471Z,2.00
2022-11-21T15:59:26.712Z,2.25
2022-11-21T16:01:52.997Z,2.90
2022-11-21T16:04:25.087Z,2.92
2022-11-21T16:06:51.544Z,2.75
2022-11-21T16:09:17.355Z,2.00
2022-11-21T16:11:43.126Z,2.58
2022-11-21T16:14:13.329Z,3.40
2022-11-21T16:16:43.280Z,2.10
2022-11-21T16:19:11.180Z,2.00
2022-11-21T16:21:36.987Z,2.20
2022-11-21T16:24:02.970Z,2.30
2022-11-21T16:26:28.756Z,2.35
2022-11-21T16:28:55.359Z,1.92
2022-11-21T16:31:23.408Z,2.72
2022-11-21T16:33:49.280Z,2.20
2022-11-21T16:36:22.109Z,2.58
2022-11-21T16:38:48.072Z,2.20
2022-11-21T16:41:18.163Z,2.63
2022-11-21T16:43:49.792Z,2.40
2022-11-21T16:46:16.659Z,2.25
2022-11-21T16:48:42.715Z,2.45
2022-11-21T16:51:13.613Z,2.08
2022-11-21T16:53:40.901Z,5.28
2022-11-21T16:56:06.867Z,2.25
2022-11-21T16:58:32.836Z,2.50
2022-11-21T17:01:07.166Z,2.10
2022-11-21T17:03:32.984Z,2.35
2022-11-21T17:05:59.834Z,2.55
2022-11-21T17:08:28.025Z,2.75
2022-11-21T17:10:54.294Z,2.28
2022-11-21T17:13:20.142Z,2.45
2022-11-21T17:15:47.046Z,2.30
2022-11-21T17:18:12.855Z,2.10
2022-11-21T17:20:38.622Z,2.65
2022-11-21T17:23:04.532Z,2.28
2022-11-21T17:25:31.766Z,2.25
2022-11-21T17:27:57.544Z,1.95
2022-11-21T17:30:23.541Z,2.20
2022-11-21T17:32:49.289Z,2.03
2022-11-21T17:35:15.167Z,2.20
2022-11-21T17:37:40.941Z,3.50
2022-11-21T17:40:11.326Z,2.30
2022-11-21T17:42:40.375Z,2.25
2022-11-21T17:45:07.262Z,2.83
2022-11-21T17:47:33.721Z,2.30
2022-11-21T17:50:05.386Z,2.65
2022-11-21T17:52:32.043Z,2.10
2022-11-21T17:54:58.235Z,2.28
2022-11-21T17:57:24.019Z,2.33
2022-11-21T17:59:50.077Z,2.30
2022-11-21T18:02:17.513Z,2.20
2022-11-21T18:04:43.387Z,1.75
2022-11-21T18:07:09.243Z,2.10
2022-11-21T18:09:35.148Z,2.55
2022-11-21T18:12:01.025Z,2.33
2022-11-21T18:14:27.037Z,2.15
2022-11-21T18:16:53.841Z,2.28
2022-11-21T18:19:20.303Z,2.15
2022-11-21T18:21:46.147Z,2.40
2022-11-21T18:24:11.938Z,1.98
2022-11-21T18:26:39.334Z,2.60
2022-11-21T18:31:55.006Z,3.20
2022-11-21T18:34:21.614Z,3.15
2022-11-21T18:36:47.453Z,3.10
2022-11-21T18:39:15.105Z,3.33
2022-11-21T18:41:42.415Z,2.67
2022-11-21T18:44:09.137Z,2.60
2022-11-21T18:46:36.536Z,3.47
2022-11-21T18:49:06.459Z,3.03
2022-11-21T18:51:34.014Z,3.08
2022-11-21T18:54:07.287Z,2.60
2022-11-21T18:56:34.503Z,2.67
2022-11-21T18:59:00.401Z,3.45
2022-11-21T19:01:28.395Z,2.85
2022-11-21T19:03:55.526Z,2.85
2022-11-21T19:06:23.047Z,2.90
2022-11-21T19:08:52.489Z,4.47
2022-11-21T19:11:19.761Z,2.97
2022-11-21T19:13:47.195Z,3.05
2022-11-21T19:16:20.082Z,3.08
2022-11-21T19:18:59.795Z,3.00
2022-11-21T19:21:35.588Z,2.78
2022-11-21T19:24:01.452Z,3.53
2022-11-21T19:26:28.479Z,3.60
2022-11-21T19:28:54.342Z,3.40
2022-11-21T19:31:20.303Z,3.72
2022-11-21T19:33:46.515Z,3.85
2022-11-21T19:36:20.612Z,4.18
2022-11-21T19:38:50.957Z,4.20
2022-11-21T19:41:20.297Z,3.97
2022-11-21T19:43:51.886Z,3.92
2022-11-21T19:46:23.079Z,3.78
2022-11-21T19:48:50.980Z,4.10
2022-11-21T19:51:17.771Z,4.35
2022-11-21T19:53:44.856Z,4.45
2022-11-21T19:56:21.994Z,3.90
2022-11-21T19:58:48.969Z,5.20
2022-11-21T20:01:17.713Z,4.18
2022-11-21T20:03:45.810Z,4.40
2022-11-21T20:06:24.325Z,4.57
2022-11-21T20:08:53.332Z,4.93
2022-11-21T20:11:20.837Z,4.80
2022-11-21T20:13:48.153Z,4.70
2022-11-21T20:16:25.478Z,5.05
2022-11-21T20:18:52.028Z,4.95
2022-11-21T20:21:19.043Z,5.00
2022-11-21T20:23:47.989Z,4.82
2022-11-21T20:26:15.311Z,4.13
2022-11-21T20:28:41.434Z,5.10
2022-11-21T20:31:12.785Z,5.70
2022-11-21T20:33:43.972Z,4.32
2022-11-21T20:36:16.661Z,4.38
2022-11-21T20:38:56.825Z,4.82
2022-11-21T20:41:25.782Z,4.82
2022-11-21T20:46:41.784Z,4.53
2022-11-21T20:49:07.845Z,4.28
2022-11-21T20:54:19.610Z,3.80
2022-11-21T20:56:45.502Z,3.92
2022-11-21T20:59:11.383Z,4.05
2022-11-21T21:01:37.448Z,3.80
2022-11-21T21:04:03.536Z,4.47
2022-11-21T21:06:29.443Z,4.30
2022-11-21T21:08:55.216Z,3.90
2022-11-21T21:11:50.259Z,3.15
2022-11-21T21:14:08.848Z,3.42
2022-11-21T21:16:35.433Z,3.75
2022-11-21T21:19:01.257Z,4.10
2022-11-21T21:21:28.640Z,4.28
2022-11-21T21:23:58.832Z,3.38
2022-11-21T21:26:27.971Z,4.63
2022-11-21T21:28:55.477Z,3.85
2022-11-21T21:31:22.487Z,4.60
2022-11-21T21:33:48.925Z,3.15
2022-11-21T21:36:20.482Z,3.50
2022-11-21T21:38:54.130Z,4.53
2022-11-21T21:41:21.736Z,4.05
2022-11-21T21:43:51.702Z,3.20
2022-11-21T21:46:19.856Z,3.67
2022-11-21T21:48:46.441Z,2.63
2022-11-21T21:51:16.194Z,3.25
2022-11-21T21:53:43.388Z,3.13
2022-11-21T21:56:09.935Z,2.97
2022-11-21T21:58:37.510Z,3.30
2022-11-21T22:01:10.870Z,3.53
2022-11-21T22:03:37.463Z,2.75
2022-11-21T22:06:05.981Z,3.40
2022-11-21T22:08:33.388Z,3.10
2022-11-21T22:11:03.679Z,3.00
2022-11-21T22:13:29.944Z,4.40
2022-11-21T22:15:57.725Z,3.13
2022-11-21T22:18:23.882Z,3.13
2022-11-21T22:20:50.090Z,3.03
2022-11-21T22:23:16.156Z,3.45
2022-11-21T22:25:42.767Z,3.53
2022-11-21T22:28:09.278Z,3.33
2022-11-21T22:30:36.126Z,2.60
2022-11-21T22:33:03.018Z,4.13
2022-11-21T22:35:32.571Z,3.80
2022-11-21T22:37:58.647Z,4.03
2022-11-21T22:40:24.887Z,3.33
2022-11-21T22:42:53.401Z,3.67
2022-11-21T22:45:19.159Z,3.30
2022-11-21T22:47:47.941Z,3.47
2022-11-21T22:50:14.838Z,3.75
2022-11-21T22:52:40.635Z,3.63
2022-11-21T22:55:07.192Z,3.55
2022-11-21T22:57:33.631Z,3.22
2022-11-21T22:59:59.480Z,3.35
2022-11-21T23:02:25.537Z,3.58
2022-11-21T23:04:51.568Z,3.10
2022-11-21T23:07:17.326Z,3.80
2022-11-21T23:09:43.158Z,3.33
2022-11-21T23:12:08.925Z,3.10
2022-11-21T23:14:34.651Z,3.22
2022-11-21T23:17:00.461Z,2.67
2022-11-21T23:19:26.552Z,3.05
2022-11-21T23:21:52.551Z,3.08
2022-11-21T23:24:18.323Z,2.50
2022-11-21T23:26:44.111Z,3.22
2022-11-21T23:29:09.901Z,2.85
2022-11-21T23:31:35.726Z,3.25
2022-11-21T23:34:01.551Z,2.80
2022-11-21T23:36:27.309Z,3.00
2022-11-21T23:38:53.121Z,2.40
2022-11-21T23:41:18.957Z,2.45
2022-11-21T23:43:44.702Z,2.47
2022-11-21T23:46:10.518Z,2.58
2022-11-21T23:48:36.317Z,3.15
2022-11-21T23:51:02.136Z,2.40
2022-11-21T23:53:27.961Z,2.42
2022-11-21T23:55:53.781Z,2.40
2022-11-21T23:58:19.526Z,2.35
